sensor_id;sensor_type;location;lat;lon;timestamp;temperature;humidity
20081;DHT22;10200;49.232;9.222;2023-04-24T00:02:23;13.80;99.90
20081;DHT22;10200;49.232;9.222;2023-04-24T00:04:49;13.70;99.90
20081;DHT22;10200;49.232;9.222;2023-04-24T00:07:15;13.70;99.90
20081;DHT22;10200;49.232;9.222;2023-04-24T00:09:42;13.70;99.90
20081;DHT22;10200;49.232;9.222;2023-04-24T00:12:08;13.70;99.90
20081;DHT22;10200;49.232;9.222;2023-04-24T00:14:34;13.70;99.90
20081;DHT22;10200;49.232;9.222;2023-04-24T00:17:00;13.80;99.90
20081;DHT22;10200;49.232;9.222;2023-04-24T00:19:28;13.80;99.90
20081;DHT22;10200;49.232;9.222;2023-04-24T00:21:54;13.80;99.90
20081;DHT22;10200;49.232;9.222;2023-04-24T00:24:20;13.70;99.90
20081;DHT22;10200;49.232;9.222;2023-04-24T00:26:46;13.70;99.90
20081;DHT22;10200;49.232;9.222;2023-04-24T00:29:11;13.70;99.90
20081;DHT22;10200;49.232;9.222;2023-04-24T00:31:37;13.70;99.90
20081;DHT22;10200;49.232;9.222;2023-04-24T00:34:03;13.70;99.90
20081;DHT22;10200;49.232;9.222;2023-04-24T00:36:29;13.70;99.90
20081;DHT22;10200;49.232;9.222;2023-04-24T00:38:56;13.60;99.90
20081;DHT22;10200;49.232;9.222;2023-04-24T00:41:22;13.60;99.90
20081;DHT22;10200;49.232;9.222;2023-04-24T00:43:48;13.60;99.90
20081;DHT22;10200;49.232;9.222;2023-04-24T00:46:14;13.60;99.90
20081;DHT22;10200;49.232;9.222;2023-04-24T00:48:40;13.60;99.90
20081;DHT22;10200;49.232;9.222;2023-04-24T00:51:06;13.60;99.90
20081;DHT22;10200;49.232;9.222;2023-04-24T00:53:32;13.60;99.90
20081;DHT22;10200;49.232;9.222;2023-04-24T00:55:58;13.60;99.90
20081;DHT22;10200;49.232;9.222;2023-04-24T00:58:25;13.60;99.90
20081;DHT22;10200;49.232;9.222;2023-04-24T01:00:51;13.50;99.90
20081;DHT22;10200;49.232;9.222;2023-04-24T01:03:22;13.50;99.90
20081;DHT22;10200;49.232;9.222;2023-04-24T01:05:50;13.50;99.90
20081;DHT22;10200;49.232;9.222;2023-04-24T01:08:16;13.50;99.90
20081;DHT22;10200;49.232;9.222;2023-04-24T01:10:44;13.50;99.90
20081;DHT22;10200;49.232;9.222;2023-04-24T01:13:10;13.50;99.90
20081;DHT22;10200;49.232;9.222;2023-04-24T01:15:36;13.50;99.90
20081;DHT22;10200;49.232;9.222;2023-04-24T01:18:02;13.50;99.90
20081;DHT22;10200;49.232;9.222;2023-04-24T01:20:28;13.50;99.90
20081;DHT22;10200;49.232;9.222;2023-04-24T01:22:55;13.60;99.90
20081;DHT22;10200;49.232;9.222;2023-04-24T01:25:22;13.50;99.90
20081;DHT22;10200;49.232;9.222;2023-04-24T01:27:48;13.60;99.90
20081;DHT22;10200;49.232;9.222;2023-04-24T01:30:14;13.60;99.90
20081;DHT22;10200;49.232;9.222;2023-04-24T01:32:40;13.50;99.90
20081;DHT22;10200;49.232;9.222;2023-04-24T01:35:09;13.60;99.90
20081;DHT22;10200;49.232;9.222;2023-04-24T01:37:35;13.40;99.90
20081;DHT22;10200;49.232;9.222;2023-04-24T01:40:04;13.40;99.90
20081;DHT22;10200;49.232;9.222;2023-04-24T01:42:30;13.40;99.90
20081;DHT22;10200;49.232;9.222;2023-04-24T01:44:56;13.40;99.90
20081;DHT22;10200;49.232;9.222;2023-04-24T01:47:23;13.40;99.90
20081;DHT22;10200;49.232;9.222;2023-04-24T01:49:50;13.40;99.90
20081;DHT22;10200;49.232;9.222;2023-04-24T01:52:15;13.40;99.90
20081;DHT22;10200;49.232;9.222;2023-04-24T01:54:43;13.40;99.90
20081;DHT22;10200;49.232;9.222;2023-04-24T01:57:08;13.40;99.90
20081;DHT22;10200;49.232;9.222;2023-04-24T01:59:34;13.40;99.90
20081;DHT22;10200;49.232;9.222;2023-04-24T02:02:02;13.40;99.90
20081;DHT22;10200;49.232;9.222;2023-04-24T02:04:28;13.40;99.90
20081;DHT22;10200;49.232;9.222;2023-04-24T02:06:54;13.40;99.90
20081;DHT22;10200;49.232;9.222;2023-04-24T02:09:19;13.40;99.90
20081;DHT22;10200;49.232;9.222;2023-04-24T02:11:45;13.40;99.90
20081;DHT22;10200;49.232;9.222;2023-04-24T02:14:10;13.40;99.90
20081;DHT22;10200;49.232;9.222;2023-04-24T02:16:36;13.30;99.90
20081;DHT22;10200;49.232;9.222;2023-04-24T02:19:03;13.30;99.90
20081;DHT22;10200;49.232;9.222;2023-04-24T02:21:29;13.30;99.90
20081;DHT22;10200;49.232;9.222;2023-04-24T02:23:56;13.30;99.90
20081;DHT22;10200;49.232;9.222;2023-04-24T02:26:22;13.20;99.90
20081;DHT22;10200;49.232;9.222;2023-04-24T02:28:47;13.30;99.90
20081;DHT22;10200;49.232;9.222;2023-04-24T02:31:14;13.20;99.90
20081;DHT22;10200;49.232;9.222;2023-04-24T02:33:39;13.20;99.90
20081;DHT22;10200;49.232;9.222;2023-04-24T02:36:05;13.20;99.90
20081;DHT22;10200;49.232;9.222;2023-04-24T02:38:31;13.20;99.90
20081;DHT22;10200;49.232;9.222;2023-04-24T02:40:56;13.20;99.90
20081;DHT22;10200;49.232;9.222;2023-04-24T02:43:22;13.20;99.90
20081;DHT22;10200;49.232;9.222;2023-04-24T02:45:48;13.20;99.90
20081;DHT22;10200;49.232;9.222;2023-04-24T02:48:14;13.20;99.90
20081;DHT22;10200;49.232;9.222;2023-04-24T02:50:40;13.20;99.90
20081;DHT22;10200;49.232;9.222;2023-04-24T02:53:05;13.20;99.90
20081;DHT22;10200;49.232;9.222;2023-04-24T02:55:31;13.20;99.90
20081;DHT22;10200;49.232;9.222;2023-04-24T02:57:57;13.20;99.90
20081;DHT22;10200;49.232;9.222;2023-04-24T03:00:22;13.20;99.90
20081;DHT22;10200;49.232;9.222;2023-04-24T03:02:48;13.10;99.90
20081;DHT22;10200;49.232;9.222;2023-04-24T03:05:15;13.10;99.90
20081;DHT22;10200;49.232;9.222;2023-04-24T03:07:41;13.10;99.90
20081;DHT22;10200;49.232;9.222;2023-04-24T03:10:08;13.10;99.90
20081;DHT22;10200;49.232;9.222;2023-04-24T03:12:34;13.10;99.90
20081;DHT22;10200;49.232;9.222;2023-04-24T03:15:00;13.10;99.90
20081;DHT22;10200;49.232;9.222;2023-04-24T03:17:26;13.10;99.90
20081;DHT22;10200;49.232;9.222;2023-04-24T03:19:51;13.10;99.90
20081;DHT22;10200;49.232;9.222;2023-04-24T03:22:17;13.00;99.90
20081;DHT22;10200;49.232;9.222;2023-04-24T03:24:42;13.00;99.90
20081;DHT22;10200;49.232;9.222;2023-04-24T03:27:08;13.00;99.90
20081;DHT22;10200;49.232;9.222;2023-04-24T03:29:34;13.00;99.90
20081;DHT22;10200;49.232;9.222;2023-04-24T03:31:59;13.00;99.90
20081;DHT22;10200;49.232;9.222;2023-04-24T03:34:25;13.00;99.90
20081;DHT22;10200;49.232;9.222;2023-04-24T03:36:51;13.00;99.90
20081;DHT22;10200;49.232;9.222;2023-04-24T03:39:18;13.10;99.90
20081;DHT22;10200;49.232;9.222;2023-04-24T03:41:43;13.00;99.90
20081;DHT22;10200;49.232;9.222;2023-04-24T03:44:09;13.10;99.90
20081;DHT22;10200;49.232;9.222;2023-04-24T03:46:34;13.10;99.90
20081;DHT22;10200;49.232;9.222;2023-04-24T03:49:00;13.10;99.90
20081;DHT22;10200;49.232;9.222;2023-04-24T03:51:26;13.10;99.90
20081;DHT22;10200;49.232;9.222;2023-04-24T03:53:53;13.10;99.90
20081;DHT22;10200;49.232;9.222;2023-04-24T03:56:19;13.10;99.90
20081;DHT22;10200;49.232;9.222;2023-04-24T03:58:45;13.20;99.90
20081;DHT22;10200;49.232;9.222;2023-04-24T04:01:10;13.20;99.90
20081;DHT22;10200;49.232;9.222;2023-04-24T04:03:37;13.10;99.90
20081;DHT22;10200;49.232;9.222;2023-04-24T04:06:03;13.10;99.90
20081;DHT22;10200;49.232;9.222;2023-04-24T04:08:28;13.20;99.90
20081;DHT22;10200;49.232;9.222;2023-04-24T04:10:54;13.10;99.90
20081;DHT22;10200;49.232;9.222;2023-04-24T04:13:20;13.10;99.90
20081;DHT22;10200;49.232;9.222;2023-04-24T04:15:45;13.10;99.90
20081;DHT22;10200;49.232;9.222;2023-04-24T04:18:11;13.00;99.90
20081;DHT22;10200;49.232;9.222;2023-04-24T04:20:37;13.00;99.90
20081;DHT22;10200;49.232;9.222;2023-04-24T04:23:02;12.90;99.90
20081;DHT22;10200;49.232;9.222;2023-04-24T04:25:28;12.90;99.90
20081;DHT22;10200;49.232;9.222;2023-04-24T04:27:54;12.90;99.90
20081;DHT22;10200;49.232;9.222;2023-04-24T04:30:20;12.90;99.90
20081;DHT22;10200;49.232;9.222;2023-04-24T04:32:46;12.90;99.90
20081;DHT22;10200;49.232;9.222;2023-04-24T04:35:12;12.80;99.90
20081;DHT22;10200;49.232;9.222;2023-04-24T04:37:38;12.70;99.90
20081;DHT22;10200;49.232;9.222;2023-04-24T04:40:04;12.60;99.90
20081;DHT22;10200;49.232;9.222;2023-04-24T04:42:33;12.50;99.90
20081;DHT22;10200;49.232;9.222;2023-04-24T04:45:06;12.30;99.90
20081;DHT22;10200;49.232;9.222;2023-04-24T04:47:34;12.30;99.90
20081;DHT22;10200;49.232;9.222;2023-04-24T04:50:00;12.20;99.90
20081;DHT22;10200;49.232;9.222;2023-04-24T04:52:26;12.10;99.90
20081;DHT22;10200;49.232;9.222;2023-04-24T04:54:52;12.10;99.90
20081;DHT22;10200;49.232;9.222;2023-04-24T04:57:17;12.00;99.90
20081;DHT22;10200;49.232;9.222;2023-04-24T04:59:43;12.00;99.90
20081;DHT22;10200;49.232;9.222;2023-04-24T05:02:09;12.00;99.90
20081;DHT22;10200;49.232;9.222;2023-04-24T05:04:34;12.00;99.90
20081;DHT22;10200;49.232;9.222;2023-04-24T05:07:00;12.00;99.90
20081;DHT22;10200;49.232;9.222;2023-04-24T05:09:26;11.90;99.90
20081;DHT22;10200;49.232;9.222;2023-04-24T05:11:53;11.90;99.90
20081;DHT22;10200;49.232;9.222;2023-04-24T05:14:18;11.90;99.90
20081;DHT22;10200;49.232;9.222;2023-04-24T05:16:44;12.00;99.90
20081;DHT22;10200;49.232;9.222;2023-04-24T05:19:10;11.90;99.90
20081;DHT22;10200;49.232;9.222;2023-04-24T05:21:40;11.90;99.90
20081;DHT22;10200;49.232;9.222;2023-04-24T05:24:06;11.90;99.90
20081;DHT22;10200;49.232;9.222;2023-04-24T05:26:32;12.00;99.90
20081;DHT22;10200;49.232;9.222;2023-04-24T05:28:58;12.00;99.90
20081;DHT22;10200;49.232;9.222;2023-04-24T05:31:23;12.00;99.90
20081;DHT22;10200;49.232;9.222;2023-04-24T05:33:49;12.00;99.90
20081;DHT22;10200;49.232;9.222;2023-04-24T05:36:15;12.00;99.90
20081;DHT22;10200;49.232;9.222;2023-04-24T05:38:40;12.60;99.90
20081;DHT22;10200;49.232;9.222;2023-04-24T05:41:06;13.50;99.90
20081;DHT22;10200;49.232;9.222;2023-04-24T05:43:31;14.60;99.90
20081;DHT22;10200;49.232;9.222;2023-04-24T05:45:57;16.00;99.90
20081;DHT22;10200;49.232;9.222;2023-04-24T05:48:23;17.70;99.80
20081;DHT22;10200;49.232;9.222;2023-04-24T05:50:48;18.30;95.60
20081;DHT22;10200;49.232;9.222;2023-04-24T05:53:14;19.30;90.70
20081;DHT22;10200;49.232;9.222;2023-04-24T05:55:40;19.90;81.90
20081;DHT22;10200;49.232;9.222;2023-04-24T05:58:06;20.50;80.00
20081;DHT22;10200;49.232;9.222;2023-04-24T06:00:32;21.20;73.90
20081;DHT22;10200;49.232;9.222;2023-04-24T06:03:00;21.70;71.40
20081;DHT22;10200;49.232;9.222;2023-04-24T06:05:26;22.40;66.40
20081;DHT22;10200;49.232;9.222;2023-04-24T06:07:51;22.90;64.80
20081;DHT22;10200;49.232;9.222;2023-04-24T06:10:17;23.40;61.10
20081;DHT22;10200;49.232;9.222;2023-04-24T06:12:43;23.60;58.30
20081;DHT22;10200;49.232;9.222;2023-04-24T06:15:09;23.70;56.10
20081;DHT22;10200;49.232;9.222;2023-04-24T06:17:34;23.00;57.50
20081;DHT22;10200;49.232;9.222;2023-04-24T06:20:00;22.20;57.80
20081;DHT22;10200;49.232;9.222;2023-04-24T06:22:26;21.20;60.70
20081;DHT22;10200;49.232;9.222;2023-04-24T06:24:52;21.30;63.70
20081;DHT22;10200;49.232;9.222;2023-04-24T06:27:17;20.60;59.90
20081;DHT22;10200;49.232;9.222;2023-04-24T06:29:43;19.60;62.90
20081;DHT22;10200;49.232;9.222;2023-04-24T06:32:08;18.60;65.10
20081;DHT22;10200;49.232;9.222;2023-04-24T06:34:34;17.50;68.80
20081;DHT22;10200;49.232;9.222;2023-04-24T06:37:00;16.90;74.20
20081;DHT22;10200;49.232;9.222;2023-04-24T06:39:26;16.40;75.20
20081;DHT22;10200;49.232;9.222;2023-04-24T06:41:52;16.60;81.60
20081;DHT22;10200;49.232;9.222;2023-04-24T06:44:17;16.70;78.90
20081;DHT22;10200;49.232;9.222;2023-04-24T06:46:43;17.10;85.00
20081;DHT22;10200;49.232;9.222;2023-04-24T06:49:09;17.90;81.60
20081;DHT22;10200;49.232;9.222;2023-04-24T06:51:35;18.30;76.80
20081;DHT22;10200;49.232;9.222;2023-04-24T06:54:00;18.10;75.70
20081;DHT22;10200;49.232;9.222;2023-04-24T06:56:26;18.20;74.50
20081;DHT22;10200;49.232;9.222;2023-04-24T06:58:54;17.70;73.00
20081;DHT22;10200;49.232;9.222;2023-04-24T07:01:19;17.40;73.60
20081;DHT22;10200;49.232;9.222;2023-04-24T07:03:45;17.00;75.80
20081;DHT22;10200;49.232;9.222;2023-04-24T07:06:11;16.60;84.80
20081;DHT22;10200;49.232;9.222;2023-04-24T07:08:38;16.20;96.50
20081;DHT22;10200;49.232;9.222;2023-04-24T07:11:03;16.00;89.20
20081;DHT22;10200;49.232;9.222;2023-04-24T07:15:55;15.30;82.40
20081;DHT22;10200;49.232;9.222;2023-04-24T07:18:21;15.40;86.40
20081;DHT22;10200;49.232;9.222;2023-04-24T07:20:47;15.40;83.20
20081;DHT22;10200;49.232;9.222;2023-04-24T07:23:15;15.20;83.30
20081;DHT22;10200;49.232;9.222;2023-04-24T07:25:41;15.20;83.00
20081;DHT22;10200;49.232;9.222;2023-04-24T07:28:07;15.00;82.20
20081;DHT22;10200;49.232;9.222;2023-04-24T07:30:32;15.10;84.60
20081;DHT22;10200;49.232;9.222;2023-04-24T07:32:59;15.10;84.40
20081;DHT22;10200;49.232;9.222;2023-04-24T07:35:26;15.60;85.10
20081;DHT22;10200;49.232;9.222;2023-04-24T07:37:55;15.80;82.00
20081;DHT22;10200;49.232;9.222;2023-04-24T07:40:21;15.80;78.70
20081;DHT22;10200;49.232;9.222;2023-04-24T07:42:47;16.10;80.90
20081;DHT22;10200;49.232;9.222;2023-04-24T07:45:16;16.20;78.70
20081;DHT22;10200;49.232;9.222;2023-04-24T07:47:42;16.00;77.10
20081;DHT22;10200;49.232;9.222;2023-04-24T07:50:11;15.90;77.90
20081;DHT22;10200;49.232;9.222;2023-04-24T07:52:38;15.50;75.60
20081;DHT22;10200;49.232;9.222;2023-04-24T07:55:04;15.30;75.60
20081;DHT22;10200;49.232;9.222;2023-04-24T07:57:33;15.10;75.80
20081;DHT22;10200;49.232;9.222;2023-04-24T07:59:59;15.30;79.60
20081;DHT22;10200;49.232;9.222;2023-04-24T08:02:24;15.50;80.30
20081;DHT22;10200;49.232;9.222;2023-04-24T08:04:58;15.60;77.80
20081;DHT22;10200;49.232;9.222;2023-04-24T08:07:28;15.50;74.70
20081;DHT22;10200;49.232;9.222;2023-04-24T08:09:54;15.40;76.00
20081;DHT22;10200;49.232;9.222;2023-04-24T08:12:20;15.90;78.80
20081;DHT22;10200;49.232;9.222;2023-04-24T08:14:45;16.10;75.20
20081;DHT22;10200;49.232;9.222;2023-04-24T08:17:11;16.20;75.10
20081;DHT22;10200;49.232;9.222;2023-04-24T08:19:37;16.20;74.80
20081;DHT22;10200;49.232;9.222;2023-04-24T08:22:03;16.10;73.00
20081;DHT22;10200;49.232;9.222;2023-04-24T08:24:29;15.80;70.40
20081;DHT22;10200;49.232;9.222;2023-04-24T08:26:55;15.80;73.60
20081;DHT22;10200;49.232;9.222;2023-04-24T08:29:23;15.90;73.80
20081;DHT22;10200;49.232;9.222;2023-04-24T08:31:48;15.80;72.40
20081;DHT22;10200;49.232;9.222;2023-04-24T08:34:14;15.60;73.30
20081;DHT22;10200;49.232;9.222;2023-04-24T08:36:40;15.50;73.40
20081;DHT22;10200;49.232;9.222;2023-04-24T08:39:06;15.20;74.50
20081;DHT22;10200;49.232;9.222;2023-04-24T08:41:33;15.00;76.70
20081;DHT22;10200;49.232;9.222;2023-04-24T08:44:01;14.80;78.30
20081;DHT22;10200;49.232;9.222;2023-04-24T08:46:27;14.40;78.40
20081;DHT22;10200;49.232;9.222;2023-04-24T08:48:53;14.10;81.20
20081;DHT22;10200;49.232;9.222;2023-04-24T08:51:19;13.80;83.40
20081;DHT22;10200;49.232;9.222;2023-04-24T08:53:46;13.70;85.10
20081;DHT22;10200;49.232;9.222;2023-04-24T08:56:12;13.60;85.60
20081;DHT22;10200;49.232;9.222;2023-04-24T08:58:39;13.70;87.70
20081;DHT22;10200;49.232;9.222;2023-04-24T09:01:05;13.80;90.00
20081;DHT22;10200;49.232;9.222;2023-04-24T09:03:31;14.10;90.10
20081;DHT22;10200;49.232;9.222;2023-04-24T09:05:58;14.40;91.30
20081;DHT22;10200;49.232;9.222;2023-04-24T09:08:26;15.20;94.50
20081;DHT22;10200;49.232;9.222;2023-04-24T09:10:52;16.20;92.80
20081;DHT22;10200;49.232;9.222;2023-04-24T09:13:19;17.00;89.90
20081;DHT22;10200;49.232;9.222;2023-04-24T09:15:45;17.80;87.90
20081;DHT22;10200;49.232;9.222;2023-04-24T09:18:10;18.30;76.00
20081;DHT22;10200;49.232;9.222;2023-04-24T09:20:56;18.60;74.30
20081;DHT22;10200;49.232;9.222;2023-04-24T09:23:22;18.20;69.30
20081;DHT22;10200;49.232;9.222;2023-04-24T09:25:54;17.70;70.10
20081;DHT22;10200;49.232;9.222;2023-04-24T09:28:32;17.40;67.00
20081;DHT22;10200;49.232;9.222;2023-04-24T09:31:15;16.80;70.40
20081;DHT22;10200;49.232;9.222;2023-04-24T09:34:02;16.50;71.20
20081;DHT22;10200;49.232;9.222;2023-04-24T09:36:35;16.10;71.60
20081;DHT22;10200;49.232;9.222;2023-04-24T09:39:10;15.80;73.00
20081;DHT22;10200;49.232;9.222;2023-04-24T09:44:20;15.50;74.50
20081;DHT22;10200;49.232;9.222;2023-04-24T09:46:50;15.20;75.20
20081;DHT22;10200;49.232;9.222;2023-04-24T09:49:24;15.00;75.50
20081;DHT22;10200;49.232;9.222;2023-04-24T09:51:50;15.00;75.50
20081;DHT22;10200;49.232;9.222;2023-04-24T09:54:17;14.90;75.50
20081;DHT22;10200;49.232;9.222;2023-04-24T09:56:44;15.10;76.60
20081;DHT22;10200;49.232;9.222;2023-04-24T09:59:14;16.00;74.40
20081;DHT22;10200;49.232;9.222;2023-04-24T10:01:40;16.00;72.10
20081;DHT22;10200;49.232;9.222;2023-04-24T10:04:18;15.90;70.80
20081;DHT22;10200;49.232;9.222;2023-04-24T10:06:45;15.70;70.40
20081;DHT22;10200;49.232;9.222;2023-04-24T10:09:11;15.50;70.20
20081;DHT22;10200;49.232;9.222;2023-04-24T10:11:42;15.10;70.20
20081;DHT22;10200;49.232;9.222;2023-04-24T10:14:10;14.90;71.90
20081;DHT22;10200;49.232;9.222;2023-04-24T10:16:38;14.70;72.80
20081;DHT22;10200;49.232;9.222;2023-04-24T10:19:04;14.50;74.50
20081;DHT22;10200;49.232;9.222;2023-04-24T10:21:31;14.40;75.00
20081;DHT22;10200;49.232;9.222;2023-04-24T10:23:57;14.30;75.50
20081;DHT22;10200;49.232;9.222;2023-04-24T10:26:26;14.50;77.40
20081;DHT22;10200;49.232;9.222;2023-04-24T10:28:54;14.60;76.30
20081;DHT22;10200;49.232;9.222;2023-04-24T10:31:22;14.60;75.70
20081;DHT22;10200;49.232;9.222;2023-04-24T10:33:50;14.60;75.30
20081;DHT22;10200;49.232;9.222;2023-04-24T10:36:17;14.50;76.60
20081;DHT22;10200;49.232;9.222;2023-04-24T10:38:45;14.60;77.00
20081;DHT22;10200;49.232;9.222;2023-04-24T10:41:13;14.70;77.40
20081;DHT22;10200;49.232;9.222;2023-04-24T10:43:45;14.80;76.30
20081;DHT22;10200;49.232;9.222;2023-04-24T10:46:18;15.00;76.10
20081;DHT22;10200;49.232;9.222;2023-04-24T10:48:54;15.40;76.40
20081;DHT22;10200;49.232;9.222;2023-04-24T10:51:22;15.80;74.70
20081;DHT22;10200;49.232;9.222;2023-04-24T10:53:50;16.10;74.30
20081;DHT22;10200;49.232;9.222;2023-04-24T10:56:17;16.50;73.00
20081;DHT22;10200;49.232;9.222;2023-04-24T10:58:44;16.60;70.50
20081;DHT22;10200;49.232;9.222;2023-04-24T11:01:29;16.60;68.40
20081;DHT22;10200;49.232;9.222;2023-04-24T11:03:56;16.50;67.60
20081;DHT22;10200;49.232;9.222;2023-04-24T11:06:48;16.30;67.20
20081;DHT22;10200;49.232;9.222;2023-04-24T11:09:18;16.20;68.70
20081;DHT22;10200;49.232;9.222;2023-04-24T11:11:48;16.20;68.90
20081;DHT22;10200;49.232;9.222;2023-04-24T11:14:16;16.00;67.80
20081;DHT22;10200;49.232;9.222;2023-04-24T11:16:52;15.80;67.80
20081;DHT22;10200;49.232;9.222;2023-04-24T11:19:21;15.60;67.70
20081;DHT22;10200;49.232;9.222;2023-04-24T11:22:00;15.30;66.70
20081;DHT22;10200;49.232;9.222;2023-04-24T11:35:32;14.30;74.50
20081;DHT22;10200;49.232;9.222;2023-04-24T11:37:41;14.20;77.20
20081;DHT22;10200;49.232;9.222;2023-04-24T11:40:11;14.20;78.90
20081;DHT22;10200;49.232;9.222;2023-04-24T11:42:43;14.10;79.50
20081;DHT22;10200;49.232;9.222;2023-04-24T11:45:22;14.20;80.10
20081;DHT22;10200;49.232;9.222;2023-04-24T11:47:48;14.20;79.60
20081;DHT22;10200;49.232;9.222;2023-04-24T11:50:17;14.30;82.50
20081;DHT22;10200;49.232;9.222;2023-04-24T11:52:46;14.60;81.70
20081;DHT22;10200;49.232;9.222;2023-04-24T11:57:43;15.30;79.00
20081;DHT22;10200;49.232;9.222;2023-04-24T12:00:18;15.50;79.30
20081;DHT22;10200;49.232;9.222;2023-04-24T12:02:45;15.90;78.10
20081;DHT22;10200;49.232;9.222;2023-04-24T12:05:21;16.00;78.70
20081;DHT22;10200;49.232;9.222;2023-04-24T12:07:47;16.00;72.60
20081;DHT22;10200;49.232;9.222;2023-04-24T12:10:13;16.00;72.60
20081;DHT22;10200;49.232;9.222;2023-04-24T12:12:38;16.00;71.80
20081;DHT22;10200;49.232;9.222;2023-04-24T12:15:08;16.00;72.70
20081;DHT22;10200;49.232;9.222;2023-04-24T12:17:35;16.00;71.50
20081;DHT22;10200;49.232;9.222;2023-04-24T12:20:04;15.90;71.50
20081;DHT22;10200;49.232;9.222;2023-04-24T12:22:52;15.70;71.40
20081;DHT22;10200;49.232;9.222;2023-04-24T12:25:41;15.50;72.60
20081;DHT22;10200;49.232;9.222;2023-04-24T12:28:12;15.30;77.40
20081;DHT22;10200;49.232;9.222;2023-04-24T12:30:47;15.00;80.20
20081;DHT22;10200;49.232;9.222;2023-04-24T12:33:20;14.70;82.40
20081;DHT22;10200;49.232;9.222;2023-04-24T12:35:48;14.60;84.80
20081;DHT22;10200;49.232;9.222;2023-04-24T12:38:15;14.60;86.40
20081;DHT22;10200;49.232;9.222;2023-04-24T12:40:42;14.70;88.10
20081;DHT22;10200;49.232;9.222;2023-04-24T12:43:18;14.80;89.40
20081;DHT22;10200;49.232;9.222;2023-04-24T12:45:44;15.10;90.50
20081;DHT22;10200;49.232;9.222;2023-04-24T12:48:11;15.50;90.10
20081;DHT22;10200;49.232;9.222;2023-04-24T12:50:38;15.60;85.60
20081;DHT22;10200;49.232;9.222;2023-04-24T12:53:04;15.80;86.70
20081;DHT22;10200;49.232;9.222;2023-04-24T12:55:31;16.10;84.10
20081;DHT22;10200;49.232;9.222;2023-04-24T12:57:59;16.20;85.20
20081;DHT22;10200;49.232;9.222;2023-04-24T13:00:25;16.50;84.00
20081;DHT22;10200;49.232;9.222;2023-04-24T13:02:50;16.50;80.70
20081;DHT22;10200;49.232;9.222;2023-04-24T13:05:16;16.30;76.90
20081;DHT22;10200;49.232;9.222;2023-04-24T13:07:42;16.30;78.40
20081;DHT22;10200;49.232;9.222;2023-04-24T13:10:08;16.20;76.30
20081;DHT22;10200;49.232;9.222;2023-04-24T13:12:35;16.10;75.40
20081;DHT22;10200;49.232;9.222;2023-04-24T13:15:01;16.10;75.70
20081;DHT22;10200;49.232;9.222;2023-04-24T13:17:26;16.00;74.60
20081;DHT22;10200;49.232;9.222;2023-04-24T13:19:56;15.90;74.90
20081;DHT22;10200;49.232;9.222;2023-04-24T13:22:21;15.80;74.60
20081;DHT22;10200;49.232;9.222;2023-04-24T13:24:47;15.60;73.10
20081;DHT22;10200;49.232;9.222;2023-04-24T13:27:17;15.40;74.80
20081;DHT22;10200;49.232;9.222;2023-04-24T13:29:43;15.20;75.20
20081;DHT22;10200;49.232;9.222;2023-04-24T13:32:09;15.10;75.80
20081;DHT22;10200;49.232;9.222;2023-04-24T13:34:35;15.00;75.50
20081;DHT22;10200;49.232;9.222;2023-04-24T13:37:02;14.90;76.40
20081;DHT22;10200;49.232;9.222;2023-04-24T13:39:29;14.90;79.10
20081;DHT22;10200;49.232;9.222;2023-04-24T13:41:55;14.90;79.20
20081;DHT22;10200;49.232;9.222;2023-04-24T13:44:21;14.90;79.20
20081;DHT22;10200;49.232;9.222;2023-04-24T13:46:50;14.90;79.00
20081;DHT22;10200;49.232;9.222;2023-04-24T13:49:17;15.00;78.50
20081;DHT22;10200;49.232;9.222;2023-04-24T13:51:45;15.20;79.20
20081;DHT22;10200;49.232;9.222;2023-04-24T13:54:11;15.40;79.00
20081;DHT22;10200;49.232;9.222;2023-04-24T13:56:37;15.60;79.20
20081;DHT22;10200;49.232;9.222;2023-04-24T13:59:03;15.90;77.70
20081;DHT22;10200;49.232;9.222;2023-04-24T14:01:29;16.00;79.10
20081;DHT22;10200;49.232;9.222;2023-04-24T14:03:56;16.30;77.80
20081;DHT22;10200;49.232;9.222;2023-04-24T14:06:22;16.40;75.60
20081;DHT22;10200;49.232;9.222;2023-04-24T14:08:48;16.50;74.80
20081;DHT22;10200;49.232;9.222;2023-04-24T14:11:14;16.40;73.50
20081;DHT22;10200;49.232;9.222;2023-04-24T14:13:43;16.40;72.90
20081;DHT22;10200;49.232;9.222;2023-04-24T14:16:09;16.40;72.80
20081;DHT22;10200;49.232;9.222;2023-04-24T14:18:35;16.20;71.60
20081;DHT22;10200;49.232;9.222;2023-04-24T14:21:02;16.10;70.10
20081;DHT22;10200;49.232;9.222;2023-04-24T14:23:28;15.90;68.40
20081;DHT22;10200;49.232;9.222;2023-04-24T14:25:54;15.70;70.80
20081;DHT22;10200;49.232;9.222;2023-04-24T14:28:20;15.60;71.10
20081;DHT22;10200;49.232;9.222;2023-04-24T14:30:47;15.60;71.70
20081;DHT22;10200;49.232;9.222;2023-04-24T14:33:14;15.50;71.50
20081;DHT22;10200;49.232;9.222;2023-04-24T14:35:41;15.60;72.10
20081;DHT22;10200;49.232;9.222;2023-04-24T14:38:10;15.60;70.90
20081;DHT22;10200;49.232;9.222;2023-04-24T14:40:37;15.60;71.00
20081;DHT22;10200;49.232;9.222;2023-04-24T14:43:04;15.60;70.70
20081;DHT22;10200;49.232;9.222;2023-04-24T14:45:29;15.60;70.80
20081;DHT22;10200;49.232;9.222;2023-04-24T14:47:55;15.50;70.00
20081;DHT22;10200;49.232;9.222;2023-04-24T14:50:21;15.30;69.60
20081;DHT22;10200;49.232;9.222;2023-04-24T14:52:47;15.20;70.20
20081;DHT22;10200;49.232;9.222;2023-04-24T14:55:14;15.10;71.00
20081;DHT22;10200;49.232;9.222;2023-04-24T14:57:39;15.10;70.80
20081;DHT22;10200;49.232;9.222;2023-04-24T15:00:06;15.10;72.00
20081;DHT22;10200;49.232;9.222;2023-04-24T15:02:34;15.10;71.80
20081;DHT22;10200;49.232;9.222;2023-04-24T15:05:03;15.10;71.30
20081;DHT22;10200;49.232;9.222;2023-04-24T15:07:29;15.10;70.50
20081;DHT22;10200;49.232;9.222;2023-04-24T15:09:56;15.00;70.60
20081;DHT22;10200;49.232;9.222;2023-04-24T15:12:22;15.00;71.70
20081;DHT22;10200;49.232;9.222;2023-04-24T15:14:49;15.00;71.60
20081;DHT22;10200;49.232;9.222;2023-04-24T15:17:14;15.00;71.90
20081;DHT22;10200;49.232;9.222;2023-04-24T15:19:40;15.10;72.30
20081;DHT22;10200;49.232;9.222;2023-04-24T15:22:06;15.20;71.60
20081;DHT22;10200;49.232;9.222;2023-04-24T15:24:32;15.10;70.70
20081;DHT22;10200;49.232;9.222;2023-04-24T15:26:59;15.10;70.70
20081;DHT22;10200;49.232;9.222;2023-04-24T15:29:25;15.10;71.00
20081;DHT22;10200;49.232;9.222;2023-04-24T15:31:51;15.10;71.20
20081;DHT22;10200;49.232;9.222;2023-04-24T15:34:18;15.10;71.00
20081;DHT22;10200;49.232;9.222;2023-04-24T15:36:44;15.10;70.50
20081;DHT22;10200;49.232;9.222;2023-04-24T15:39:09;15.10;70.70
20081;DHT22;10200;49.232;9.222;2023-04-24T15:41:36;15.00;70.40
20081;DHT22;10200;49.232;9.222;2023-04-24T15:44:02;15.00;70.20
20081;DHT22;10200;49.232;9.222;2023-04-24T15:46:27;14.90;70.80
20081;DHT22;10200;49.232;9.222;2023-04-24T15:48:54;14.90;71.20